createdAt,value
2023-03-25T00:01:19.801Z,3.90
2023-03-25T00:03:50.933Z,3.50
2023-03-25T00:06:20.261Z,3.80
2023-03-25T00:08:48.633Z,3.70
2023-03-25T00:11:17.491Z,4.10
2023-03-25T00:13:45.741Z,4.60
2023-03-25T00:16:15.204Z,4.10
2023-03-25T00:18:43.453Z,4.20
2023-03-25T00:21:11.869Z,3.90
2023-03-25T00:23:41.540Z,4.10
2023-03-25T00:26:10.854Z,4.20
2023-03-25T00:28:39.401Z,4.10
2023-03-25T00:31:12.807Z,3.40
2023-03-25T00:33:44.134Z,3.50
2023-03-25T00:36:15.310Z,3.60
2023-03-25T00:38:45.832Z,3.50
2023-03-25T00:41:25.866Z,3.90
2023-03-25T00:43:56.740Z,3.80
2023-03-25T00:46:27.686Z,4.00
2023-03-25T00:48:58.409Z,3.50
2023-03-25T00:51:28.517Z,4.10
2023-03-25T00:54:01.547Z,2.90
2023-03-25T00:56:30.799Z,3.20
2023-03-25T00:58:59.101Z,3.30
2023-03-25T01:01:28.818Z,3.80
2023-03-25T01:04:00.692Z,3.50
2023-03-25T01:06:33.380Z,4.30
2023-03-25T01:09:05.971Z,3.80
2023-03-25T01:11:35.139Z,4.20
2023-03-25T01:14:06.004Z,3.80
2023-03-25T01:16:34.511Z,3.10
2023-03-25T01:19:03.401Z,3.50
2023-03-25T01:21:35.292Z,3.90
2023-03-25T01:24:08.664Z,3.30
2023-03-25T01:26:38.157Z,3.50
2023-03-25T01:29:07.483Z,3.50
2023-03-25T01:31:36.012Z,3.70
2023-03-25T01:34:06.106Z,3.30
2023-03-25T01:36:37.624Z,3.70
2023-03-25T01:39:08.977Z,3.20
2023-03-25T01:41:49.166Z,3.40
2023-03-25T01:44:24.315Z,3.50
2023-03-25T01:46:54.405Z,3.00
2023-03-25T01:49:30.452Z,3.00
2023-03-25T01:52:14.423Z,2.40
2023-03-25T01:54:44.414Z,2.90
2023-03-25T01:57:18.533Z,3.70
2023-03-25T01:59:47.879Z,3.40
2023-03-25T02:02:18.987Z,3.30
2023-03-25T02:05:10.960Z,2.90
2023-03-25T02:07:43.168Z,4.20
2023-03-25T02:10:12.634Z,2.80
2023-03-25T02:12:41.663Z,3.10
2023-03-25T02:15:12.060Z,3.40
2023-03-25T02:17:44.413Z,3.40
2023-03-25T02:20:21.695Z,3.00
2023-03-25T02:23:02.127Z,4.00
2023-03-25T02:25:36.521Z,3.10
2023-03-25T02:28:26.211Z,3.40
2023-03-25T02:31:06.814Z,3.30
2023-03-25T02:34:19.767Z,3.50
2023-03-25T02:37:00.300Z,4.60
2023-03-25T02:39:36.093Z,3.30
2023-03-25T02:42:04.515Z,3.00
2023-03-25T02:44:56.963Z,3.20
2023-03-25T02:47:32.858Z,3.20
2023-03-25T02:50:11.618Z,3.30
2023-03-25T02:52:46.128Z,3.30
2023-03-25T02:55:17.937Z,3.20
2023-03-25T02:57:50.043Z,3.70
2023-03-25T03:00:22.324Z,2.90
2023-03-25T03:03:00.217Z,3.50
2023-03-25T03:05:37.116Z,2.40
2023-03-25T03:08:24.401Z,3.40
2023-03-25T03:11:10.970Z,3.00
2023-03-25T03:13:58.152Z,3.30
2023-03-25T03:16:51.849Z,3.30
2023-03-25T03:19:38.439Z,3.80
2023-03-25T03:22:37.200Z,3.30
2023-03-25T03:25:31.568Z,3.80
2023-03-25T03:28:40.646Z,4.80
2023-03-25T03:31:49.782Z,3.00
2023-03-25T03:34:41.341Z,3.30
2023-03-25T03:37:14.505Z,3.60
2023-03-25T03:39:45.563Z,3.20
2023-03-25T03:42:20.655Z,3.60
2023-03-25T03:45:01.825Z,3.50
2023-03-25T03:47:36.950Z,2.90
2023-03-25T03:50:20.013Z,3.70
2023-03-25T03:53:30.996Z,4.10
2023-03-25T03:56:16.766Z,3.50
2023-03-25T03:58:47.204Z,4.20
2023-03-25T04:01:46.401Z,3.90
2023-03-25T04:04:22.344Z,4.40
2023-03-25T04:07:04.684Z,3.90
2023-03-25T04:09:57.804Z,4.00
2023-03-25T04:12:34.530Z,4.60
2023-03-25T04:15:04.597Z,4.80
2023-03-25T04:17:35.998Z,5.30
2023-03-25T04:20:11.215Z,4.80
2023-03-25T04:22:39.351Z,4.80
2023-03-25T04:25:08.264Z,6.00
2023-03-25T04:27:38.082Z,5.50
2023-03-25T04:30:08.625Z,5.70
2023-03-25T04:32:36.907Z,6.50
2023-03-25T04:35:05.559Z,5.80
2023-03-25T04:37:33.978Z,6.00
2023-03-25T04:40:02.174Z,6.70
2023-03-25T04:42:33.376Z,7.50
2023-03-25T04:45:01.722Z,7.80
2023-03-25T04:47:30.012Z,6.90
2023-03-25T04:49:58.325Z,7.20
2023-03-25T04:52:26.514Z,6.80
2023-03-25T04:54:55.738Z,6.60
2023-03-25T04:57:26.068Z,6.60
2023-03-25T04:59:54.380Z,6.40
2023-03-25T05:02:24.307Z,5.90
2023-03-25T05:04:54.127Z,6.40
2023-03-25T05:07:22.273Z,6.70
2023-03-25T05:09:50.449Z,6.60
2023-03-25T05:12:18.625Z,5.90
2023-03-25T05:14:47.922Z,5.70
2023-03-25T05:17:16.079Z,6.50
2023-03-25T05:19:44.690Z,5.50
2023-03-25T05:22:13.283Z,5.50
2023-03-25T05:24:45.298Z,6.60
2023-03-25T05:27:13.605Z,6.10
2023-03-25T05:29:44.767Z,5.00
2023-03-25T05:32:17.756Z,6.50
2023-03-25T05:34:49.092Z,5.30
2023-03-25T05:37:17.842Z,5.20
2023-03-25T05:39:46.377Z,5.10
2023-03-25T05:42:15.143Z,6.30
2023-03-25T05:44:51.255Z,5.50
2023-03-25T05:47:24.954Z,4.60
2023-03-25T05:49:54.504Z,4.90
2023-03-25T05:52:24.805Z,4.60
2023-03-25T05:54:53.062Z,5.20
2023-03-25T05:57:21.292Z,5.80
2023-03-25T05:59:49.545Z,4.20
2023-03-25T06:02:18.343Z,4.20
2023-03-25T06:04:50.797Z,4.10
2023-03-25T06:07:22.529Z,3.90
2023-03-25T06:09:54.423Z,3.70
2023-03-25T06:12:24.408Z,4.20
2023-03-25T06:14:54.376Z,5.00
2023-03-25T06:17:23.291Z,5.40
2023-03-25T06:19:52.124Z,4.20
2023-03-25T06:22:23.646Z,4.90
2023-03-25T06:24:52.708Z,4.50
2023-03-25T06:27:21.410Z,4.50
2023-03-25T06:29:51.020Z,5.20
2023-03-25T06:32:19.279Z,4.90
2023-03-25T06:34:48.267Z,4.70
2023-03-25T06:37:19.902Z,7.00
2023-03-25T06:39:50.040Z,4.60
2023-03-25T06:42:21.209Z,4.60
2023-03-25T06:45:14.417Z,4.70
2023-03-25T06:48:03.015Z,4.80
2023-03-25T06:50:32.215Z,5.30
2023-03-25T06:53:00.537Z,4.10
2023-03-25T06:55:28.774Z,5.20
2023-03-25T06:57:57.649Z,4.70
2023-03-25T07:00:27.172Z,5.70
2023-03-25T07:02:55.763Z,5.50
2023-03-25T07:05:25.628Z,5.30
2023-03-25T07:07:54.389Z,4.60
2023-03-25T07:10:22.636Z,5.60
2023-03-25T07:12:51.017Z,4.60
2023-03-25T07:15:20.009Z,5.70
2023-03-25T07:17:49.613Z,6.30
2023-03-25T07:20:18.380Z,5.40
2023-03-25T07:22:48.894Z,5.40
2023-03-25T07:25:17.166Z,6.80
2023-03-25T07:27:45.362Z,6.40
2023-03-25T07:30:16.581Z,5.70
2023-03-25T07:32:46.087Z,7.80
2023-03-25T07:35:14.605Z,8.00
2023-03-25T07:37:42.818Z,6.80
2023-03-25T07:40:13.796Z,8.10
2023-03-25T07:42:42.208Z,5.90
2023-03-25T07:45:17.758Z,7.60
2023-03-25T07:47:50.489Z,7.10
2023-03-25T07:50:23.138Z,7.20
2023-03-25T07:52:54.450Z,6.30
2023-03-25T07:55:22.777Z,7.20
2023-03-25T07:57:51.073Z,6.90
2023-03-25T08:00:19.787Z,7.10
2023-03-25T08:02:48.026Z,7.80
2023-03-25T08:05:21.557Z,6.90
2023-03-25T08:07:51.417Z,6.20
2023-03-25T08:10:20.298Z,6.80
2023-03-25T08:12:52.937Z,6.80
2023-03-25T08:15:24.648Z,6.80
2023-03-25T08:17:53.133Z,6.90
2023-03-25T08:20:21.951Z,7.10
2023-03-25T08:22:51.426Z,6.80
2023-03-25T08:25:19.702Z,7.10
2023-03-25T08:27:47.889Z,7.40
2023-03-25T08:30:18.073Z,6.70
2023-03-25T08:32:46.486Z,8.40
2023-03-25T08:35:14.963Z,9.10
2023-03-25T08:37:43.247Z,9.70
2023-03-25T08:40:11.809Z,8.60
2023-03-25T08:42:40.029Z,8.40
2023-03-25T08:45:09.298Z,7.90
2023-03-25T08:47:37.635Z,8.10
2023-03-25T08:50:06.712Z,7.90
2023-03-25T08:52:35.485Z,7.80
2023-03-25T08:55:05.338Z,7.10
2023-03-25T08:57:36.558Z,8.40
2023-03-25T09:00:15.398Z,8.40
2023-03-25T09:02:44.115Z,8.50
2023-03-25T09:05:13.765Z,9.10
2023-03-25T09:07:42.189Z,9.10
2023-03-25T09:10:10.608Z,9.50
2023-03-25T09:12:39.726Z,11.10
2023-03-25T09:15:09.954Z,10.50
2023-03-25T09:17:40.124Z,11.30
2023-03-25T09:20:10.913Z,11.60
2023-03-25T09:22:40.980Z,13.10
2023-03-25T09:25:09.439Z,18.00
2023-03-25T09:27:37.748Z,11.80
2023-03-25T09:30:08.314Z,12.00
2023-03-25T09:32:36.764Z,12.00
2023-03-25T09:35:05.648Z,13.20
2023-03-25T09:37:34.726Z,12.20
2023-03-25T09:40:05.554Z,13.40
2023-03-25T09:43:06.622Z,12.50
2023-03-25T09:45:43.442Z,11.50
2023-03-25T09:48:36.087Z,11.40
2023-03-25T09:51:27.390Z,12.00
2023-03-25T09:54:02.475Z,12.20
2023-03-25T09:56:42.214Z,12.70
2023-03-25T09:59:16.178Z,11.60
2023-03-25T10:02:22.839Z,11.90
2023-03-25T10:05:28.991Z,10.50
2023-03-25T10:08:09.754Z,11.70
2023-03-25T10:11:05.485Z,11.60
2023-03-25T10:13:34.611Z,11.30
2023-03-25T10:16:21.244Z,10.40
2023-03-25T10:19:22.017Z,12.70
2023-03-25T10:22:09.445Z,9.50
2023-03-25T10:24:58.759Z,9.00
2023-03-25T10:27:37.560Z,9.60
2023-03-25T10:30:18.952Z,9.30
2023-03-25T10:32:52.049Z,9.90
2023-03-25T10:35:25.938Z,10.50
2023-03-25T10:37:58.524Z,9.20
2023-03-25T10:40:34.983Z,8.70
2023-03-25T10:43:21.910Z,8.10
2023-03-25T10:45:55.030Z,8.20
2023-03-25T10:48:28.199Z,9.90
2023-03-25T10:51:12.050Z,8.00
2023-03-25T10:53:42.471Z,7.80
2023-03-25T10:56:22.148Z,8.20
2023-03-25T10:58:54.054Z,7.90
2023-03-25T11:01:35.487Z,8.70
2023-03-25T11:04:07.621Z,9.10
2023-03-25T11:06:40.076Z,9.80
2023-03-25T11:09:08.600Z,8.70
2023-03-25T11:11:37.266Z,9.50
2023-03-25T11:14:05.436Z,8.10
2023-03-25T11:16:36.747Z,8.60
2023-03-25T11:19:05.867Z,7.80
2023-03-25T11:21:36.707Z,8.40
2023-03-25T11:24:06.613Z,9.20
2023-03-25T11:26:42.093Z,9.10
2023-03-25T11:29:17.069Z,9.00
2023-03-25T11:31:57.317Z,8.70
2023-03-25T11:34:26.425Z,9.20
2023-03-25T11:36:58.890Z,8.20
2023-03-25T11:39:37.488Z,9.60
2023-03-25T11:42:26.574Z,8.60
2023-03-25T11:44:59.679Z,8.40
2023-03-25T11:47:42.291Z,9.80
2023-03-25T11:50:21.565Z,9.10
2023-03-25T11:53:02.977Z,9.60
2023-03-25T11:55:37.861Z,10.20
2023-03-25T11:58:15.716Z,10.60
2023-03-25T12:00:50.095Z,10.00
2023-03-25T12:03:23.373Z,10.80
2023-03-25T12:06:06.369Z,10.30
2023-03-25T12:08:43.283Z,10.80
2023-03-25T12:11:18.764Z,12.20
2023-03-25T12:13:55.925Z,11.90
2023-03-25T12:16:35.064Z,12.40
2023-03-25T12:19:15.373Z,12.50
2023-03-25T12:21:50.316Z,12.40
2023-03-25T12:24:36.989Z,14.00
2023-03-25T12:27:17.124Z,16.20
2023-03-25T12:30:04.157Z,14.20
2023-03-25T12:32:53.942Z,14.70
2023-03-25T12:35:22.492Z,16.60
2023-03-25T12:38:12.626Z,17.10
2023-03-25T12:40:43.471Z,17.00
2023-03-25T12:43:15.598Z,16.80
2023-03-25T12:46:01.380Z,15.60
2023-03-25T12:48:45.655Z,16.80
2023-03-25T12:51:26.008Z,17.50
2023-03-25T12:54:21.474Z,16.60
2023-03-25T12:57:28.379Z,17.90
2023-03-25T13:00:20.392Z,16.70
2023-03-25T13:03:01.229Z,16.00
2023-03-25T13:05:35.734Z,16.50
2023-03-25T13:08:13.712Z,17.40
2023-03-25T13:10:44.987Z,16.90
2023-03-25T13:13:25.937Z,16.20
2023-03-25T13:16:09.965Z,17.40
2023-03-25T13:18:47.702Z,18.10
2023-03-25T13:21:27.747Z,16.30
2023-03-25T13:24:04.134Z,18.00
2023-03-25T13:26:32.775Z,16.10
2023-03-25T13:29:12.421Z,17.40
2023-03-25T13:31:45.034Z,17.60
2023-03-25T13:34:40.253Z,16.00
2023-03-25T13:37:25.075Z,17.40
2023-03-25T13:40:15.054Z,17.50
2023-03-25T13:42:57.278Z,17.80
2023-03-25T13:45:28.973Z,17.80
2023-03-25T13:48:17.597Z,17.40
2023-03-25T13:50:46.929Z,19.10
2023-03-25T13:53:30.190Z,16.00
2023-03-25T13:56:07.383Z,17.80
2023-03-25T13:58:53.873Z,16.40
2023-03-25T14:04:20.642Z,16.60
2023-03-25T14:07:13.623Z,17.20
2023-03-25T14:10:09.011Z,15.30
2023-03-25T14:12:51.206Z,16.00
2023-03-25T14:15:34.056Z,14.70
2023-03-25T14:18:03.566Z,16.60
2023-03-25T14:20:41.791Z,16.00
2023-03-25T14:23:17.941Z,16.60
2023-03-25T14:25:50.541Z,15.90
2023-03-25T14:28:33.883Z,15.50
2023-03-25T14:31:14.480Z,15.10
2023-03-25T14:34:04.191Z,14.50
2023-03-25T14:36:38.880Z,15.90
2023-03-25T14:39:32.335Z,14.90
2023-03-25T14:42:03.458Z,17.00
2023-03-25T14:44:34.394Z,15.50
2023-03-25T14:47:16.249Z,15.40
2023-03-25T14:50:22.466Z,15.90
2023-03-25T14:52:56.848Z,18.70
2023-03-25T14:55:29.094Z,15.00
2023-03-25T14:58:06.894Z,18.30
2023-03-25T15:00:42.687Z,16.90
2023-03-25T15:03:18.792Z,14.60
2023-03-25T15:05:57.551Z,15.40
2023-03-25T15:08:43.176Z,15.10
2023-03-25T15:11:16.071Z,16.70
2023-03-25T15:13:54.518Z,15.60
2023-03-25T15:16:57.125Z,14.30
2023-03-25T15:19:25.498Z,16.90
2023-03-25T15:22:11.184Z,16.70
2023-03-25T15:24:48.027Z,18.50
2023-03-25T15:27:39.117Z,17.10
2023-03-25T15:30:10.321Z,16.10
2023-03-25T15:33:11.403Z,15.40
2023-03-25T15:36:03.199Z,16.00
2023-03-25T15:38:46.547Z,14.70
2023-03-25T15:41:33.558Z,14.60
2023-03-25T15:44:18.465Z,17.50
2023-03-25T15:46:46.719Z,16.40
2023-03-25T15:49:33.887Z,16.80
2023-03-25T15:52:33.609Z,17.70
2023-03-25T15:55:24.324Z,18.50
2023-03-25T15:58:06.167Z,18.50
2023-03-25T16:00:47.998Z,18.20
2023-03-25T16:03:27.276Z,16.40
2023-03-25T16:06:02.721Z,15.70
2023-03-25T16:08:41.311Z,17.00
2023-03-25T16:11:21.864Z,15.60
2023-03-25T16:14:13.330Z,16.10
2023-03-25T16:16:56.799Z,17.70
2023-03-25T16:19:34.279Z,19.10
2023-03-25T16:22:19.822Z,20.10
2023-03-25T16:24:50.205Z,17.60
2023-03-25T16:27:26.298Z,19.10
2023-03-25T16:32:37.665Z,20.70
2023-03-25T16:35:08.229Z,21.30
2023-03-25T16:37:36.676Z,21.50
2023-03-25T16:40:06.984Z,19.80
2023-03-25T16:42:36.856Z,20.60
2023-03-25T16:45:06.731Z,18.90
2023-03-25T16:47:35.078Z,17.30
2023-03-25T16:50:04.711Z,18.70
2023-03-25T16:52:35.257Z,17.40
2023-03-25T16:55:27.407Z,19.30
2023-03-25T16:57:56.206Z,18.60
2023-03-25T17:00:25.730Z,16.20
2023-03-25T17:02:54.316Z,16.90
2023-03-25T17:05:27.001Z,16.70
2023-03-25T17:08:05.213Z,16.30
2023-03-25T17:10:49.805Z,16.90
2023-03-25T17:13:52.008Z,18.10
2023-03-25T17:16:22.560Z,18.10
2023-03-25T17:18:53.561Z,14.80
2023-03-25T17:21:27.379Z,16.10
2023-03-25T17:23:57.435Z,17.20
2023-03-25T17:26:33.267Z,13.60
2023-03-25T17:29:07.055Z,16.20
2023-03-25T17:31:40.065Z,15.60
2023-03-25T17:34:11.190Z,15.80
2023-03-25T17:36:51.029Z,17.80
2023-03-25T17:39:29.291Z,16.20
2023-03-25T17:42:03.143Z,18.60
2023-03-25T17:44:41.385Z,18.90
2023-03-25T17:47:17.476Z,17.00
2023-03-25T17:49:46.357Z,19.60
2023-03-25T17:52:14.558Z,20.50
2023-03-25T17:54:44.847Z,18.70
2023-03-25T17:57:18.186Z,20.10
2023-03-25T17:59:47.463Z,20.90
2023-03-25T18:02:17.559Z,22.00
2023-03-25T18:04:46.067Z,20.80
2023-03-25T18:07:15.017Z,20.10
2023-03-25T18:09:43.406Z,21.00
2023-03-25T18:12:11.836Z,22.60
2023-03-25T18:14:40.340Z,21.20
2023-03-25T18:17:14.848Z,23.10
2023-03-25T18:19:43.921Z,19.80
2023-03-25T18:22:19.859Z,20.20
2023-03-25T18:24:48.710Z,19.70
2023-03-25T18:27:16.875Z,19.10
2023-03-25T18:29:45.294Z,19.00
2023-03-25T18:32:13.746Z,19.30
2023-03-25T18:34:42.306Z,18.50
2023-03-25T18:37:12.804Z,18.80
2023-03-25T18:39:41.238Z,18.60
2023-03-25T18:42:09.532Z,17.40
2023-03-25T18:44:38.678Z,17.80
2023-03-25T18:47:08.544Z,16.50
2023-03-25T18:49:36.720Z,15.20
2023-03-25T18:52:05.193Z,16.80
2023-03-25T18:54:33.449Z,14.90
2023-03-25T18:57:02.080Z,15.30
2023-03-25T18:59:30.645Z,17.20
2023-03-25T19:01:58.897Z,17.30
2023-03-25T19:04:32.040Z,15.80
2023-03-25T19:07:00.862Z,17.00
2023-03-25T19:09:32.167Z,16.10
2023-03-25T19:12:00.365Z,17.50
2023-03-25T19:14:28.509Z,17.40
2023-03-25T19:17:03.514Z,15.60
2023-03-25T19:19:32.491Z,14.90
2023-03-25T19:22:00.823Z,15.20
2023-03-25T19:24:29.095Z,17.00
2023-03-25T19:26:57.691Z,16.50
2023-03-25T19:29:26.001Z,17.00
2023-03-25T19:31:54.696Z,15.00
2023-03-25T19:34:23.028Z,16.50
2023-03-25T19:36:55.443Z,14.40
2023-03-25T19:39:23.747Z,14.00
2023-03-25T19:41:53.045Z,15.60
2023-03-25T19:44:22.123Z,14.90
2023-03-25T19:46:50.354Z,13.20
2023-03-25T19:49:32.879Z,13.60
2023-03-25T19:52:08.520Z,12.80
2023-03-25T19:54:36.705Z,13.10
2023-03-25T19:57:04.987Z,15.00
2023-03-25T19:59:33.673Z,14.30
2023-03-25T20:02:02.155Z,14.50
2023-03-25T20:04:30.553Z,13.90
2023-03-25T20:06:58.817Z,16.60
2023-03-25T20:09:30.382Z,14.30
2023-03-25T20:11:58.592Z,13.70
2023-03-25T20:14:27.286Z,14.20
2023-03-25T20:16:55.772Z,15.40
2023-03-25T20:19:24.107Z,12.60
2023-03-25T20:21:52.404Z,13.40
2023-03-25T20:24:23.759Z,13.50
2023-03-25T20:26:53.168Z,13.60
2023-03-25T20:29:22.467Z,13.90
2023-03-25T20:31:50.849Z,13.60
2023-03-25T20:34:19.065Z,12.20
2023-03-25T20:36:48.359Z,11.80
2023-03-25T20:39:16.704Z,12.60
2023-03-25T20:41:46.453Z,12.30
2023-03-25T20:44:15.621Z,12.20
2023-03-25T20:46:46.524Z,11.90
2023-03-25T20:49:15.892Z,13.30
2023-03-25T20:51:47.585Z,12.70
2023-03-25T20:54:16.828Z,13.00
2023-03-25T20:56:46.614Z,13.40
2023-03-25T20:59:16.900Z,12.80
2023-03-25T21:01:50.854Z,12.40
2023-03-25T21:04:24.600Z,12.20
2023-03-25T21:06:53.549Z,12.30
2023-03-25T21:09:21.960Z,13.50
2023-03-25T21:11:51.078Z,17.60
2023-03-25T21:14:19.454Z,17.50
2023-03-25T21:16:47.935Z,18.00
2023-03-25T21:19:21.276Z,15.30
2023-03-25T21:21:49.525Z,12.50
2023-03-25T21:24:21.720Z,12.70
2023-03-25T21:26:52.854Z,11.70
2023-03-25T21:29:25.662Z,12.10
2023-03-25T21:31:53.996Z,13.00
2023-03-25T21:34:23.207Z,13.20
2023-03-25T21:36:51.892Z,13.40
2023-03-25T21:39:33.234Z,14.00
2023-03-25T21:42:11.384Z,12.10
2023-03-25T21:44:40.969Z,12.70
2023-03-25T21:47:09.884Z,13.10
2023-03-25T21:49:38.559Z,11.90
2023-03-25T21:52:12.858Z,13.00
2023-03-25T21:54:43.913Z,13.40
2023-03-25T21:57:12.289Z,13.10
2023-03-25T22:14:28.744Z,14.40
2023-03-25T22:16:57.006Z,14.20
2023-03-25T22:19:25.220Z,15.00
2023-03-25T22:21:53.423Z,14.60
2023-03-25T22:24:21.698Z,14.30
2023-03-25T22:26:49.920Z,13.00
2023-03-25T22:29:18.109Z,14.40
2023-03-25T22:31:46.438Z,13.30
2023-03-25T22:34:15.854Z,14.00
2023-03-25T22:36:49.811Z,11.40
2023-03-25T22:39:20.614Z,11.70
2023-03-25T22:41:48.928Z,12.10
2023-03-25T22:44:18.294Z,13.60
2023-03-25T22:46:48.033Z,13.20
2023-03-25T22:49:17.553Z,13.60
2023-03-25T23:04:56.559Z,13.00
2023-03-25T23:07:24.984Z,13.00
2023-03-25T23:09:53.205Z,13.60
2023-03-25T23:12:24.124Z,12.10
2023-03-25T23:14:55.912Z,12.70
2023-03-25T23:17:27.641Z,12.20
2023-03-25T23:19:56.242Z,12.40
2023-03-25T23:22:25.249Z,13.40
2023-03-25T23:24:54.664Z,13.90
2023-03-25T23:27:24.506Z,12.70
2023-03-25T23:29:53.307Z,12.80
2023-03-25T23:32:21.632Z,12.40
2023-03-25T23:34:49.906Z,13.00
2023-03-25T23:37:18.609Z,14.10
2023-03-25T23:39:46.988Z,12.60
2023-03-25T23:42:15.166Z,11.90
2023-03-25T23:44:43.963Z,12.10
2023-03-25T23:47:12.335Z,12.00
2023-03-25T23:49:40.499Z,14.50
2023-03-25T23:52:11.641Z,12.60
2023-03-25T23:54:40.640Z,13.40
2023-03-25T23:57:09.004Z,12.90
2023-03-25T23:59:37.277Z,12.30
